Time;durP1;ratioP1;P1;durP2;ratioP2;P2;SDS_P1;SDS_P2;PMS_P1;PMS_P2;Temp;Humidity;BMP_temperature;BMP_pressure;BME280_temperature;BME280_humidity;BME280_pressure;Samples;Min_cycle;Max_cycle;Signal;HPM_P1;HPM_P2
2021/12/08 00:01:05;;;;;;;6.07;2.90;;;;;;;;;;5024782;28;20181;-72
2021/12/08 00:03:31;;;;;;;8.00;3.73;;;;;;;;;;5025807;28;20212;-73
2021/12/08 00:05:57;;;;;;;5.70;3.00;;;;;;;;;;5022430;28;20717;-73
2021/12/08 00:08:24;;;;;;;8.30;3.30;;;;;;;;;;5026163;28;20633;-72
2021/12/08 00:13:15;;;;;;;3.07;2.43;;;;;;;;;;5028956;28;20526;-73
2021/12/08 00:15:41;;;;;;;5.60;2.90;;;;;;;;;;5021232;28;21154;-73
2021/12/08 00:18:08;;;;;;;5.67;3.17;;;;;;;;;;5028863;28;20180;-73
2021/12/08 00:20:34;;;;;;;8.00;2.97;;;;;;;;;;5026823;28;20472;-73
2021/12/08 00:23:00;;;;;;;4.70;2.70;;;;;;;;;;5027270;28;20418;-73
2021/12/08 00:25:26;;;;;;;6.83;3.00;;;;;;;;;;5029503;28;20267;-74
2021/12/08 00:27:51;;;;;;;5.90;3.37;;;;;;;;;;5026266;28;20939;-72
2021/12/08 00:30:17;;;;;;;5.57;2.50;;;;;;;;;;5028423;28;20184;-73
2021/12/08 00:32:43;;;;;;;3.60;2.80;;;;;;;;;;5030644;28;20597;-74
2021/12/08 00:35:08;;;;;;;5.93;2.47;;;;;;;;;;5025899;28;20446;-70
2021/12/08 00:37:33;;;;;;;4.97;2.40;;;;;;;;;;5028142;28;20187;-73
2021/12/08 00:39:59;;;;;;;5.27;2.80;;;;;;;;;;5022608;28;20429;-72
2021/12/08 00:42:24;;;;;;;7.77;2.80;;;;;;;;;;5024493;28;20204;-70
2021/12/08 00:44:50;;;;;;;7.80;2.53;;;;;;;;;;5023439;28;21126;-71
2021/12/08 00:47:16;;;;;;;5.97;2.20;;;;;;;;;;5027676;28;20229;-71
2021/12/08 00:49:41;;;;;;;4.33;2.17;;;;;;;;;;5032258;28;20286;-74
2021/12/08 00:52:07;;;;;;;3.70;2.33;;;;;;;;;;5027194;28;20541;-72
2021/12/08 00:54:32;;;;;;;5.87;2.43;;;;;;;;;;5023263;28;20672;-73
2021/12/08 00:56:58;;;;;;;7.43;2.60;;;;;;;;;;5022323;28;20436;-74
2021/12/08 00:59:24;;;;;;;9.03;2.60;;;;;;;;;;5026878;28;20195;-72
2021/12/08 01:01:49;;;;;;;5.00;2.23;;;;;;;;;;5025462;28;20207;-73
2021/12/08 01:04:15;;;;;;;4.50;2.10;;;;;;;;;;5023004;28;20311;-71
2021/12/08 01:06:41;;;;;;;5.53;2.23;;;;;;;;;;5020056;28;20923;-73
2021/12/08 01:09:06;;;;;;;4.43;2.20;;;;;;;;;;5025701;28;20184;-72
2021/12/08 01:11:32;;;;;;;4.27;1.87;;;;;;;;;;5026397;28;21122;-74
2021/12/08 01:13:57;;;;;;;5.90;2.17;;;;;;;;;;5020753;28;20216;-73
2021/12/08 01:16:22;;;;;;;6.67;2.30;;;;;;;;;;5025357;28;20176;-72
2021/12/08 01:18:48;;;;;;;3.07;2.30;;;;;;;;;;5025652;28;20210;-73
2021/12/08 01:21:13;;;;;;;4.90;2.37;;;;;;;;;;5024959;28;20566;-74
2021/12/08 01:23:40;;;;;;;4.80;2.37;;;;;;;;;;5027286;28;20687;-75
2021/12/08 01:26:06;;;;;;;3.63;1.70;;;;;;;;;;5026992;28;20460;-72
2021/12/08 01:28:32;;;;;;;4.60;2.47;;;;;;;;;;5030348;28;20721;-73
2021/12/08 01:30:59;;;;;;;4.60;2.00;;;;;;;;;;5028383;28;20918;-72
2021/12/08 01:33:25;;;;;;;3.57;2.20;;;;;;;;;;5028791;28;20204;-72
2021/12/08 01:35:51;;;;;;;4.83;1.97;;;;;;;;;;5024614;28;21402;-73
2021/12/08 01:38:16;;;;;;;4.37;1.70;;;;;;;;;;5023253;28;20180;-70
2021/12/08 01:40:41;;;;;;;3.00;1.43;;;;;;;;;;5025996;28;20208;-72
2021/12/08 01:43:22;;;;;;;4.53;1.80;;;;;;;;;;5031771;28;20271;-70
2021/12/08 01:45:57;;;;;;;5.60;2.00;;;;;;;;;;5026439;28;20553;-71
2021/12/08 01:48:23;;;;;;;10.57;2.40;;;;;;;;;;5024988;28;20426;-74
2021/12/08 01:50:50;;;;;;;3.40;2.00;;;;;;;;;;5024870;28;20439;-70
2021/12/08 01:53:16;;;;;;;3.20;1.83;;;;;;;;;;5024306;28;20207;-72
2021/12/08 01:55:41;;;;;;;6.03;1.70;;;;;;;;;;5024190;28;20438;-72
2021/12/08 01:58:08;;;;;;;8.03;1.70;;;;;;;;;;5025074;28;20278;-71
2021/12/08 02:00:35;;;;;;;3.00;1.80;;;;;;;;;;5021270;28;20204;-73
2021/12/08 02:03:00;;;;;;;4.37;1.50;;;;;;;;;;5037297;28;20482;-71
2021/12/08 02:05:26;;;;;;;11.03;2.40;;;;;;;;;;5026000;28;20976;-69
2021/12/08 02:07:52;;;;;;;3.50;1.80;;;;;;;;;;5026312;28;21094;-71
2021/12/08 02:10:17;;;;;;;3.67;1.87;;;;;;;;;;5032178;28;20180;-73
2021/12/08 02:12:42;;;;;;;4.37;1.77;;;;;;;;;;5024291;28;20267;-69
2021/12/08 02:15:10;;;;;;;4.10;1.87;;;;;;;;;;5023837;28;20343;-72
2021/12/08 02:17:36;;;;;;;4.17;2.17;;;;;;;;;;5028474;28;20172;-71
2021/12/08 02:20:02;;;;;;;3.23;1.60;;;;;;;;;;5030760;28;20861;-72
2021/12/08 02:22:28;;;;;;;4.37;1.90;;;;;;;;;;5027256;28;20199;-72
2021/12/08 02:24:53;;;;;;;4.17;2.13;;;;;;;;;;5027467;28;20873;-72
2021/12/08 02:27:18;;;;;;;5.57;2.00;;;;;;;;;;5025548;28;20177;-70
2021/12/08 02:29:52;;;;;;;3.23;1.87;;;;;;;;;;5030919;28;20184;-72
2021/12/08 02:48:26;;;;;;;4.80;1.70;;;;;;;;;;5027986;28;20416;-69
2021/12/08 02:50:52;;;;;;;2.90;1.40;;;;;;;;;;5035674;28;20430;-72
2021/12/08 02:53:17;;;;;;;3.23;1.90;;;;;;;;;;5026429;28;20446;-72
2021/12/08 02:55:43;;;;;;;3.87;1.63;;;;;;;;;;5026313;28;20207;-70
2021/12/08 02:58:08;;;;;;;4.17;1.67;;;;;;;;;;5027241;28;20800;-72
2021/12/08 03:00:37;;;;;;;2.83;1.90;;;;;;;;;;5027281;28;20450;-69
2021/12/08 03:03:03;;;;;;;2.00;1.50;;;;;;;;;;5022547;28;20588;-71
2021/12/08 03:05:29;;;;;;;3.87;1.80;;;;;;;;;;5027544;28;21186;-72
2021/12/08 03:07:55;;;;;;;4.40;1.90;;;;;;;;;;5026935;28;20423;-72
2021/12/08 03:10:22;;;;;;;5.27;1.87;;;;;;;;;;5031601;28;20681;-71
2021/12/08 03:12:47;;;;;;;4.10;1.83;;;;;;;;;;5030084;28;20317;-72
2021/12/08 03:15:13;;;;;;;2.80;1.53;;;;;;;;;;5027665;28;20963;-72
2021/12/08 03:17:39;;;;;;;4.80;1.70;;;;;;;;;;5029658;28;20195;-71
2021/12/08 03:20:09;;;;;;;3.57;1.50;;;;;;;;;;5025217;28;20870;-72
2021/12/08 03:22:40;;;;;;;3.17;2.20;;;;;;;;;;5027476;28;20435;-71
2021/12/08 03:25:11;;;;;;;6.90;1.87;;;;;;;;;;5025819;28;20450;-71
2021/12/08 03:27:44;;;;;;;3.43;1.77;;;;;;;;;;5033293;28;20512;-71
2021/12/08 03:30:17;;;;;;;3.80;1.80;;;;;;;;;;5024630;28;20457;-69
2021/12/08 03:32:43;;;;;;;3.87;1.80;;;;;;;;;;5027711;28;20434;-72
2021/12/08 03:35:14;;;;;;;3.30;1.27;;;;;;;;;;5027876;28;20511;-72
2021/12/08 03:37:41;;;;;;;3.07;1.20;;;;;;;;;;5028593;28;20188;-73
2021/12/08 03:40:14;;;;;;;4.40;1.83;;;;;;;;;;5028202;28;20459;-74
2021/12/08 03:42:40;;;;;;;3.70;1.50;;;;;;;;;;5031343;28;20425;-71
2021/12/08 03:45:10;;;;;;;4.97;2.13;;;;;;;;;;5026871;28;20981;-71
2021/12/08 03:47:38;;;;;;;2.27;1.40;;;;;;;;;;5018969;28;25939;-70
2021/12/08 03:50:08;;;;;;;3.50;1.80;;;;;;;;;;5026265;28;20434;-71
2021/12/08 03:52:33;;;;;;;4.80;1.70;;;;;;;;;;5027592;28;20507;-70
2021/12/08 03:54:59;;;;;;;1.53;1.40;;;;;;;;;;5031322;28;20463;-69
2021/12/08 03:57:24;;;;;;;4.93;1.53;;;;;;;;;;5029358;28;20301;-70
2021/12/08 03:59:50;;;;;;;2.70;1.30;;;;;;;;;;5029375;28;20223;-70
2021/12/08 04:02:15;;;;;;;3.33;1.30;;;;;;;;;;5022345;28;23700;-72
2021/12/08 04:04:45;;;;;;;4.23;1.50;;;;;;;;;;5027885;28;20219;-73
2021/12/08 04:07:13;;;;;;;5.23;2.33;;;;;;;;;;5023723;28;20172;-72
2021/12/08 04:09:43;;;;;;;2.10;1.77;;;;;;;;;;5029468;28;20427;-71
2021/12/08 04:12:10;;;;;;;3.53;1.60;;;;;;;;;;5028645;28;20510;-70
2021/12/08 04:14:37;;;;;;;1.70;1.23;;;;;;;;;;5029412;28;20516;-69
2021/12/08 04:17:12;;;;;;;2.80;1.60;;;;;;;;;;5028394;28;20462;-71
2021/12/08 04:19:39;;;;;;;2.17;1.47;;;;;;;;;;5023848;28;20465;-70
2021/12/08 04:22:09;;;;;;;1.77;1.50;;;;;;;;;;5025449;28;20509;-71
2021/12/08 04:24:35;;;;;;;2.20;1.70;;;;;;;;;;5025272;28;20449;-74
2021/12/08 04:27:03;;;;;;;2.60;1.17;;;;;;;;;;5025005;28;20485;-71
2021/12/08 04:29:31;;;;;;;2.50;1.57;;;;;;;;;;5031520;28;20696;-71
2021/12/08 04:31:57;;;;;;;2.60;1.63;;;;;;;;;;5026643;28;20990;-70
2021/12/08 04:34:26;;;;;;;3.63;1.50;;;;;;;;;;5029752;28;20497;-74
2021/12/08 04:36:53;;;;;;;3.87;1.80;;;;;;;;;;5021674;28;20180;-71
2021/12/08 04:39:26;;;;;;;4.13;2.03;;;;;;;;;;5025412;28;20455;-69
2021/12/08 04:41:58;;;;;;;2.73;1.90;;;;;;;;;;5028790;28;21042;-72
2021/12/08 04:44:31;;;;;;;2.23;1.97;;;;;;;;;;5025433;28;20993;-71
2021/12/08 04:47:53;;;;;;;3.37;1.80;;;;;;;;;;5028839;28;20962;-71
2021/12/08 04:52:30;;;;;;;4.20;2.03;;;;;;;;;;5025627;28;20430;-72
2021/12/08 05:00:43;;;;;;;2.17;1.60;;;;;;;;;;5028819;28;20462;-70
2021/12/08 05:08:20;;;;;;;4.57;1.97;;;;;;;;;;5024197;28;20427;-70
2021/12/08 05:10:47;;;;;;;4.40;1.83;;;;;;;;;;5025997;28;20792;-71
2021/12/08 05:13:13;;;;;;;5.27;2.30;;;;;;;;;;5022158;28;20786;-71
2021/12/08 05:15:41;;;;;;;2.33;1.90;;;;;;;;;;5028479;28;20443;-72
2021/12/08 05:18:07;;;;;;;2.77;2.00;;;;;;;;;;5021586;28;20445;-73
2021/12/08 05:20:42;;;;;;;3.97;2.37;;;;;;;;;;5042446;28;20451;-71
2021/12/08 05:23:09;;;;;;;3.70;2.43;;;;;;;;;;5042057;28;20180;-71
2021/12/08 05:25:36;;;;;;;3.67;2.20;;;;;;;;;;5017562;28;20958;-70
2021/12/08 05:28:04;;;;;;;3.13;2.60;;;;;;;;;;5041075;28;20876;-73
2021/12/08 05:30:29;;;;;;;5.80;2.03;;;;;;;;;;5021655;28;20450;-70
2021/12/08 05:32:55;;;;;;;2.47;2.27;;;;;;;;;;5026599;28;20451;-70
2021/12/08 05:35:22;;;;;;;2.60;2.40;;;;;;;;;;5023674;28;20188;-71
2021/12/08 05:37:47;;;;;;;3.00;2.33;;;;;;;;;;5025406;28;20477;-71
2021/12/08 05:40:18;;;;;;;3.97;2.37;;;;;;;;;;5018434;28;20493;-68
2021/12/08 05:42:43;;;;;;;6.40;2.37;;;;;;;;;;5015417;28;20191;-71
2021/12/08 05:45:11;;;;;;;4.70;2.50;;;;;;;;;;5015431;28;20449;-73
2021/12/08 05:47:37;;;;;;;3.00;2.70;;;;;;;;;;5029793;28;20180;-72
2021/12/08 05:50:03;;;;;;;4.07;2.40;;;;;;;;;;5023691;28;20445;-69
2021/12/08 05:52:28;;;;;;;2.90;2.60;;;;;;;;;;5018235;28;20270;-72
2021/12/08 05:54:53;;;;;;;6.47;2.73;;;;;;;;;;5026891;28;20471;-72
2021/12/08 05:57:21;;;;;;;2.93;2.63;;;;;;;;;;5022571;28;20464;-72
2021/12/08 05:59:48;;;;;;;4.03;3.03;;;;;;;;;;5017326;28;20204;-71
2021/12/08 06:02:33;;;;;;;5.73;2.80;;;;;;;;;;5018251;28;20529;-71
2021/12/08 06:04:59;;;;;;;3.30;2.70;;;;;;;;;;5022834;28;20474;-71
2021/12/08 06:07:24;;;;;;;7.70;2.50;;;;;;;;;;5020982;28;20435;-71
2021/12/08 06:09:51;;;;;;;3.47;2.73;;;;;;;;;;5010339;28;20184;-69
2021/12/08 06:12:17;;;;;;;3.83;3.50;;;;;;;;;;5022263;28;20191;-71
2021/12/08 06:14:43;;;;;;;3.67;3.03;;;;;;;;;;5022934;28;20458;-71
2021/12/08 06:17:15;;;;;;;3.03;2.60;;;;;;;;;;5022418;28;20523;-73
2021/12/08 06:19:41;;;;;;;2.90;2.70;;;;;;;;;;5028285;28;20692;-73
2021/12/08 06:22:08;;;;;;;4.80;3.10;;;;;;;;;;5023581;28;20430;-71
2021/12/08 06:24:33;;;;;;;3.30;3.00;;;;;;;;;;5028959;28;20450;-71
2021/12/08 06:26:59;;;;;;;3.43;3.13;;;;;;;;;;5024014;28;20441;-71
2021/12/08 06:29:24;;;;;;;3.73;3.37;;;;;;;;;;5026015;28;20909;-72
2021/12/08 06:31:52;;;;;;;3.43;3.10;;;;;;;;;;5027762;28;20635;-73
2021/12/08 06:34:18;;;;;;;4.33;3.27;;;;;;;;;;5029299;28;20208;-73
2021/12/08 06:36:46;;;;;;;4.80;3.60;;;;;;;;;;5024212;28;20915;-71
2021/12/08 06:39:16;;;;;;;4.27;3.60;;;;;;;;;;5023899;28;20505;-71
2021/12/08 06:41:43;;;;;;;4.10;3.70;;;;;;;;;;5025921;28;20439;-72
2021/12/08 06:44:11;;;;;;;4.40;3.73;;;;;;;;;;5025967;28;20456;-70
2021/12/08 06:46:38;;;;;;;5.20;3.30;;;;;;;;;;5028593;28;20431;-73
2021/12/08 06:49:04;;;;;;;4.47;4.07;;;;;;;;;;5030591;28;20430;-70
2021/12/08 06:51:35;;;;;;;4.23;3.83;;;;;;;;;;5012809;28;20446;-71
2021/12/08 06:54:07;;;;;;;3.93;3.23;;;;;;;;;;5021348;28;20460;-72
2021/12/08 06:56:39;;;;;;;3.90;3.43;;;;;;;;;;5032150;28;20431;-73
2021/12/08 06:59:12;;;;;;;3.90;3.50;;;;;;;;;;5030885;28;20557;-74
2021/12/08 07:01:56;;;;;;;5.83;3.70;;;;;;;;;;5031312;28;21564;-71
2021/12/08 07:04:29;;;;;;;3.90;3.27;;;;;;;;;;5028710;28;20461;-74
2021/12/08 07:07:01;;;;;;;4.53;3.50;;;;;;;;;;5025810;28;20430;-72
2021/12/08 07:09:32;;;;;;;4.13;3.70;;;;;;;;;;5026489;28;20631;-71
2021/12/08 07:11:59;;;;;;;5.73;3.53;;;;;;;;;;5027248;28;20426;-72
2021/12/08 07:14:25;;;;;;;4.10;3.70;;;;;;;;;;5030263;28;20564;-73
2021/12/08 07:16:53;;;;;;;7.73;4.20;;;;;;;;;;5031842;28;20443;-73
2021/12/08 07:19:28;;;;;;;5.37;3.67;;;;;;;;;;5030568;28;20458;-73
2021/12/08 07:21:55;;;;;;;4.00;3.30;;;;;;;;;;5032033;28;20421;-73
2021/12/08 07:24:23;;;;;;;6.53;3.20;;;;;;;;;;5033433;28;20489;-73
2021/12/08 07:26:49;;;;;;;4.00;3.43;;;;;;;;;;5028605;28;20430;-72
2021/12/08 07:29:16;;;;;;;4.53;3.50;;;;;;;;;;5031908;28;20529;-72
2021/12/08 07:31:46;;;;;;;4.93;3.40;;;;;;;;;;5026577;28;20455;-75
2021/12/08 07:34:17;;;;;;;4.63;3.40;;;;;;;;;;5032643;28;20967;-73
2021/12/08 07:36:43;;;;;;;2.77;2.57;;;;;;;;;;5034953;28;20428;-72
2021/12/08 07:39:12;;;;;;;6.33;3.37;;;;;;;;;;5031794;28;20470;-72
2021/12/08 07:41:39;;;;;;;4.00;3.70;;;;;;;;;;5021233;28;20521;-74
2021/12/08 07:44:07;;;;;;;3.27;2.97;;;;;;;;;;5030596;28;20458;-73
2021/12/08 07:46:39;;;;;;;3.27;3.03;;;;;;;;;;5032093;28;20426;-73
2021/12/08 07:49:13;;;;;;;5.07;3.27;;;;;;;;;;5031683;28;20529;-75
2021/12/08 07:51:47;;;;;;;6.13;3.47;;;;;;;;;;5034449;28;20446;-74
2021/12/08 07:54:13;;;;;;;6.70;3.53;;;;;;;;;;5021244;28;20733;-70
2021/12/08 07:56:39;;;;;;;5.73;3.87;;;;;;;;;;5022853;28;20804;-73
2021/12/08 07:59:08;;;;;;;4.57;3.37;;;;;;;;;;5028403;28;20226;-73
2021/12/08 08:01:36;;;;;;;4.63;3.43;;;;;;;;;;5025515;28;20824;-72
2021/12/08 08:04:03;;;;;;;5.67;3.23;;;;;;;;;;5032469;28;20474;-73
2021/12/08 08:06:32;;;;;;;6.03;4.03;;;;;;;;;;5029228;28;20431;-73
2021/12/08 08:08:57;;;;;;;12.60;3.77;;;;;;;;;;5028663;28;20429;-78
2021/12/08 08:11:30;;;;;;;4.97;2.90;;;;;;;;;;5028912;28;20430;-75
2021/12/08 08:13:56;;;;;;;4.37;3.37;;;;;;;;;;5033480;28;21739;-72
2021/12/08 08:16:24;;;;;;;9.77;3.40;;;;;;;;;;5031435;28;20437;-72
2021/12/08 08:18:55;;;;;;;4.40;3.30;;;;;;;;;;5033530;28;20184;-74
2021/12/08 08:21:25;;;;;;;4.13;3.00;;;;;;;;;;5033689;28;20437;-74
2021/12/08 08:23:50;;;;;;;6.60;3.33;;;;;;;;;;5033194;28;20455;-74
2021/12/08 08:26:16;;;;;;;5.17;3.60;;;;;;;;;;5032465;28;20874;-74
2021/12/08 08:28:44;;;;;;;3.33;3.07;;;;;;;;;;5032546;28;20214;-73
2021/12/08 08:31:15;;;;;;;9.97;2.90;;;;;;;;;;5029005;28;20524;-72
2021/12/08 08:33:41;;;;;;;3.90;3.27;;;;;;;;;;5031916;28;20447;-72
2021/12/08 08:36:09;;;;;;;7.23;2.73;;;;;;;;;;5028879;28;20438;-74
2021/12/08 08:38:37;;;;;;;5.53;3.07;;;;;;;;;;5031950;28;20426;-72
2021/12/08 08:41:06;;;;;;;4.80;3.10;;;;;;;;;;5029472;28;20656;-73
2021/12/08 08:43:32;;;;;;;4.47;3.00;;;;;;;;;;5022566;28;20459;-72
2021/12/08 08:46:00;;;;;;;3.03;2.73;;;;;;;;;;5030284;28;21006;-72
2021/12/08 08:48:31;;;;;;;7.97;3.50;;;;;;;;;;5029124;28;20533;-73
2021/12/08 08:51:01;;;;;;;7.73;3.40;;;;;;;;;;5029008;28;20439;-72
2021/12/08 08:53:30;;;;;;;4.97;3.00;;;;;;;;;;5025253;28;20969;-71
2021/12/08 08:55:57;;;;;;;4.83;2.93;;;;;;;;;;5029474;28;20469;-75
2021/12/08 08:58:24;;;;;;;4.60;2.57;;;;;;;;;;5026240;28;20950;-72
2021/12/08 09:00:53;;;;;;;6.53;3.83;;;;;;;;;;5024118;28;20462;-74
2021/12/08 09:03:21;;;;;;;4.03;2.90;;;;;;;;;;5027873;28;20814;-71
2021/12/08 09:05:52;;;;;;;10.40;3.30;;;;;;;;;;5026683;28;20442;-75
2021/12/08 09:08:18;;;;;;;3.80;3.40;;;;;;;;;;5026998;28;20422;-73
2021/12/08 09:10:43;;;;;;;3.43;2.70;;;;;;;;;;5028682;28;20473;-72
2021/12/08 09:13:18;;;;;;;5.43;2.70;;;;;;;;;;5027665;28;20592;-73
2021/12/08 09:15:49;;;;;;;3.50;2.80;;;;;;;;;;5029705;28;20254;-72
2021/12/08 09:18:45;;;;;;;5.77;3.70;;;;;;;;;;5029565;28;21961;-73
2021/12/08 09:21:16;;;;;;;6.63;3.10;;;;;;;;;;5020716;28;20458;-73
2021/12/08 09:23:48;;;;;;;4.57;2.47;;;;;;;;;;5022261;28;20455;-72
2021/12/08 09:26:15;;;;;;;7.10;2.50;;;;;;;;;;5029982;28;20576;-72
2021/12/08 09:28:45;;;;;;;6.90;2.73;;;;;;;;;;5023837;28;20868;-75
2021/12/08 09:31:16;;;;;;;4.23;2.40;;;;;;;;;;5027009;28;20869;-74
2021/12/08 09:34:04;;;;;;;7.47;3.20;;;;;;;;;;5029460;28;21029;-70
2021/12/08 09:36:39;;;;;;;9.93;3.37;;;;;;;;;;5020069;28;20431;-71
2021/12/08 09:39:08;;;;;;;3.77;2.57;;;;;;;;;;5027680;28;20469;-73
2021/12/08 09:41:37;;;;;;;8.80;2.77;;;;;;;;;;5028731;28;20538;-70
2021/12/08 09:44:22;;;;;;;6.30;2.10;;;;;;;;;;5027595;28;20553;-71
2021/12/08 09:46:48;;;;;;;5.40;3.10;;;;;;;;;;5032504;28;20430;-71
2021/12/08 09:49:15;;;;;;;3.90;2.33;;;;;;;;;;5031933;28;20431;-72
2021/12/08 09:51:42;;;;;;;5.83;2.33;;;;;;;;;;5026548;28;20175;-71
2021/12/08 09:54:07;;;;;;;4.30;2.43;;;;;;;;;;5028198;28;20450;-74
2021/12/08 09:56:34;;;;;;;5.50;2.50;;;;;;;;;;5025420;28;20517;-73
2021/12/08 09:59:00;;;;;;;7.20;2.60;;;;;;;;;;5027678;28;20175;-72
2021/12/08 10:01:27;;;;;;;3.20;2.07;;;;;;;;;;5028068;28;20452;-71
2021/12/08 10:03:53;;;;;;;3.60;2.67;;;;;;;;;;5029675;28;20481;-69
2021/12/08 10:06:20;;;;;;;12.13;2.70;;;;;;;;;;5032323;28;20433;-69
2021/12/08 10:08:46;;;;;;;4.30;2.20;;;;;;;;;;5027211;28;20426;-70
2021/12/08 10:11:12;;;;;;;14.27;3.03;;;;;;;;;;5021093;28;20795;-71
2021/12/08 10:13:38;;;;;;;5.70;2.50;;;;;;;;;;5030203;28;20455;-73
2021/12/08 10:16:03;;;;;;;5.83;2.80;;;;;;;;;;5029117;28;20994;-73
2021/12/08 10:18:29;;;;;;;6.70;3.33;;;;;;;;;;5029603;28;20176;-72
2021/12/08 10:20:55;;;;;;;8.70;2.60;;;;;;;;;;5029565;28;20207;-70
2021/12/08 10:23:28;;;;;;;8.63;2.43;;;;;;;;;;5025560;28;20207;-74
2021/12/08 10:25:53;;;;;;;5.07;2.17;;;;;;;;;;5027842;28;20526;-70
2021/12/08 10:28:27;;;;;;;6.57;2.87;;;;;;;;;;5027037;28;21024;-71
2021/12/08 10:30:54;;;;;;;10.17;3.00;;;;;;;;;;5035248;28;20181;-71
2021/12/08 10:39:11;;;;;;;9.63;3.80;;;;;;;;;;5034361;28;23101;-71
2021/12/08 10:41:42;;;;;;;7.60;3.90;;;;;;;;;;5029938;28;20439;-72
2021/12/08 10:44:07;;;;;;;4.93;3.10;;;;;;;;;;5034690;28;20485;-70
2021/12/08 10:46:34;;;;;;;8.90;3.60;;;;;;;;;;5015830;28;20532;-70
2021/12/08 10:49:22;;;;;;;5.80;2.83;;;;;;;;;;5025074;28;20263;-72
2021/12/08 10:54:32;;;;;;;6.83;2.87;;;;;;;;;;5029885;28;20815;-72
2021/12/08 10:56:59;;;;;;;7.90;2.57;;;;;;;;;;5033037;28;20433;-74
2021/12/08 10:59:26;;;;;;;5.80;2.20;;;;;;;;;;5034355;28;20550;-73
2021/12/08 11:01:53;;;;;;;8.30;2.40;;;;;;;;;;5030801;28;20435;-74
2021/12/08 11:04:19;;;;;;;5.40;2.07;;;;;;;;;;5025334;28;20468;-73
2021/12/08 11:06:44;;;;;;;7.63;2.30;;;;;;;;;;5032385;28;20429;-73
2021/12/08 11:09:21;;;;;;;7.47;3.07;;;;;;;;;;5030596;28;21916;-73
2021/12/08 11:11:46;;;;;;;7.30;2.80;;;;;;;;;;5031443;28;20557;-71
2021/12/08 11:14:12;;;;;;;8.70;2.37;;;;;;;;;;5027289;28;20459;-72
2021/12/08 11:16:38;;;;;;;14.23;2.67;;;;;;;;;;5034996;28;20187;-71
2021/12/08 11:19:08;;;;;;;6.57;2.70;;;;;;;;;;5034974;28;20284;-71
2021/12/08 11:21:37;;;;;;;11.27;2.93;;;;;;;;;;5029453;28;20460;-70
2021/12/08 11:24:04;;;;;;;7.33;2.43;;;;;;;;;;5027937;28;20512;-70
2021/12/08 11:26:33;;;;;;;10.17;3.20;;;;;;;;;;5032166;28;20430;-72
2021/12/08 11:28:59;;;;;;;11.97;3.03;;;;;;;;;;5031715;28;20576;-71
2021/12/08 11:31:28;;;;;;;10.60;2.30;;;;;;;;;;5030719;28;20438;-73
2021/12/08 11:34:05;;;;;;;6.27;2.50;;;;;;;;;;5031415;28;20505;-70
2021/12/08 11:36:36;;;;;;;7.90;2.60;;;;;;;;;;5032797;28;20479;-72
2021/12/08 11:39:06;;;;;;;7.30;2.30;;;;;;;;;;5030502;28;20423;-70
2021/12/08 11:41:36;;;;;;;9.80;2.00;;;;;;;;;;5027816;28;20518;-71
2021/12/08 11:44:23;;;;;;;11.50;2.70;;;;;;;;;;5025980;28;20464;-72
2021/12/08 11:46:50;;;;;;;7.53;2.10;;;;;;;;;;5031891;28;20423;-71
2021/12/08 11:49:16;;;;;;;9.67;2.20;;;;;;;;;;5031696;28;20446;-73
2021/12/08 11:51:44;;;;;;;8.20;2.20;;;;;;;;;;5032079;28;20434;-72
2021/12/08 11:54:26;;;;;;;8.13;2.53;;;;;;;;;;5028380;28;20454;-72
2021/12/08 11:56:53;;;;;;;6.70;2.00;;;;;;;;;;5030808;28;21119;-73
2021/12/08 11:59:19;;;;;;;4.87;1.93;;;;;;;;;;5032582;28;20812;-72
2021/12/08 12:01:45;;;;;;;8.03;2.47;;;;;;;;;;5030711;28;20433;-70
2021/12/08 12:04:11;;;;;;;6.00;2.07;;;;;;;;;;5029158;28;20462;-69
2021/12/08 12:06:37;;;;;;;6.80;2.10;;;;;;;;;;5028753;28;20796;-74
2021/12/08 12:09:03;;;;;;;14.90;2.40;;;;;;;;;;5028203;28;20179;-72
2021/12/08 12:11:29;;;;;;;8.93;2.43;;;;;;;;;;5030485;28;20464;-75
2021/12/08 12:13:56;;;;;;;8.23;2.47;;;;;;;;;;5029826;28;20474;-73
2021/12/08 12:16:22;;;;;;;6.37;1.83;;;;;;;;;;5027373;28;20450;-72
2021/12/08 12:18:47;;;;;;;9.30;2.50;;;;;;;;;;5027259;28;20434;-72
2021/12/08 12:21:27;;;;;;;7.73;2.13;;;;;;;;;;5029426;28;20243;-76
2021/12/08 12:24:11;;;;;;;4.97;2.13;;;;;;;;;;5029623;28;20208;-71
2021/12/08 12:26:55;;;;;;;7.70;2.60;;;;;;;;;;5032842;28;20478;-72
2021/12/08 12:29:36;;;;;;;9.20;2.50;;;;;;;;;;5029318;28;20438;-71
2021/12/08 12:32:17;;;;;;;3.77;1.50;;;;;;;;;;5028138;28;20861;-74
2021/12/08 12:34:43;;;;;;;8.80;2.37;;;;;;;;;;5024486;28;20474;-72
2021/12/08 12:37:17;;;;;;;6.80;2.40;;;;;;;;;;5030517;28;20442;-75
2021/12/08 12:39:49;;;;;;;11.53;2.10;;;;;;;;;;5029653;28;21008;-72
2021/12/08 12:42:16;;;;;;;7.37;2.10;;;;;;;;;;5031705;28;20844;-74
2021/12/08 12:44:43;;;;;;;7.03;2.03;;;;;;;;;;5029347;28;20458;-73
2021/12/08 12:47:14;;;;;;;7.10;1.80;;;;;;;;;;5025188;28;20430;-75
2021/12/08 12:49:44;;;;;;;7.30;2.43;;;;;;;;;;5024204;28;20444;-71
2021/12/08 12:52:11;;;;;;;6.83;2.80;;;;;;;;;;5029213;28;20442;-76
2021/12/08 12:54:37;;;;;;;10.63;2.27;;;;;;;;;;5026931;28;20947;-74
2021/12/08 12:57:06;;;;;;;7.50;2.13;;;;;;;;;;5021696;28;20986;-74
2021/12/08 12:59:53;;;;;;;9.70;1.80;;;;;;;;;;5027776;28;20457;-73
2021/12/08 13:02:25;;;;;;;8.57;1.97;;;;;;;;;;5026423;28;20738;-73
2021/12/08 13:04:53;;;;;;;6.57;2.17;;;;;;;;;;5029457;28;20450;-74
2021/12/08 13:07:19;;;;;;;7.33;2.20;;;;;;;;;;5025888;28;20457;-73
2021/12/08 13:09:51;;;;;;;9.73;2.27;;;;;;;;;;5028898;28;20567;-72
2021/12/08 13:12:21;;;;;;;7.57;2.40;;;;;;;;;;5029876;28;20538;-72
2021/12/08 13:14:48;;;;;;;4.50;1.87;;;;;;;;;;5028544;28;20450;-74
2021/12/08 13:17:13;;;;;;;6.10;2.07;;;;;;;;;;5021476;28;21957;-74
2021/12/08 13:19:42;;;;;;;6.63;2.07;;;;;;;;;;5027527;28;20557;-73
2021/12/08 13:22:08;;;;;;;8.90;2.37;;;;;;;;;;5026218;28;20257;-71
2021/12/08 13:24:33;;;;;;;5.40;2.17;;;;;;;;;;5025449;28;21044;-74
2021/12/08 13:27:01;;;;;;;6.30;2.33;;;;;;;;;;5025761;28;20482;-74
2021/12/08 13:29:28;;;;;;;13.30;2.90;;;;;;;;;;5028592;28;20276;-71
2021/12/08 13:31:59;;;;;;;6.27;2.27;;;;;;;;;;5027614;28;20529;-72
2021/12/08 13:34:32;;;;;;;7.63;3.50;;;;;;;;;;5026622;28;20477;-73
2021/12/08 13:37:11;;;;;;;6.17;2.00;;;;;;;;;;5028835;28;20914;-74
2021/12/08 13:39:41;;;;;;;5.53;2.10;;;;;;;;;;5027150;28;20466;-75
2021/12/08 13:42:16;;;;;;;4.67;2.33;;;;;;;;;;5027987;28;20442;-73
2021/12/08 13:44:51;;;;;;;7.37;2.90;;;;;;;;;;5031279;28;20445;-74
2021/12/08 13:47:34;;;;;;;8.07;1.87;;;;;;;;;;5028628;28;20502;-70
2021/12/08 13:50:06;;;;;;;5.43;1.70;;;;;;;;;;5032644;28;20430;-75
2021/12/08 13:52:32;;;;;;;5.53;2.20;;;;;;;;;;5030219;28;20942;-69
2021/12/08 13:55:16;;;;;;;9.20;2.00;;;;;;;;;;5025393;28;20556;-72
2021/12/08 13:57:41;;;;;;;7.97;2.40;;;;;;;;;;5028778;28;20429;-70
2021/12/08 14:00:06;;;;;;;10.70;2.20;;;;;;;;;;5029515;28;20461;-73
2021/12/08 14:02:37;;;;;;;16.23;3.33;;;;;;;;;;5024669;28;20180;-72
2021/12/08 14:05:18;;;;;;;8.20;1.87;;;;;;;;;;5025387;28;20714;-69
2021/12/08 14:07:47;;;;;;;4.37;1.53;;;;;;;;;;5026935;28;20426;-74
2021/12/08 14:10:14;;;;;;;3.30;1.40;;;;;;;;;;5028320;28;20437;-73
2021/12/08 14:12:41;;;;;;;5.60;1.37;;;;;;;;;;5026135;28;20514;-71
2021/12/08 14:15:06;;;;;;;5.83;1.50;;;;;;;;;;5030351;28;20458;-72
2021/12/08 14:17:32;;;;;;;10.93;2.70;;;;;;;;;;5026132;28;20465;-71
2021/12/08 14:19:57;;;;;;;8.33;1.80;;;;;;;;;;5026849;28;20226;-72
2021/12/08 14:22:35;;;;;;;7.33;1.50;;;;;;;;;;5027089;28;20817;-73
2021/12/08 14:25:00;;;;;;;6.13;1.20;;;;;;;;;;5027210;28;20774;-74
2021/12/08 14:27:29;;;;;;;8.87;1.83;;;;;;;;;;5023095;28;20438;-72
2021/12/08 14:29:54;;;;;;;6.40;1.80;;;;;;;;;;5041307;28;20192;-71
2021/12/08 14:32:20;;;;;;;3.90;1.37;;;;;;;;;;5027844;28;21028;-69
2021/12/08 14:34:45;;;;;;;8.20;1.60;;;;;;;;;;5023544;28;20282;-73
2021/12/08 14:37:11;;;;;;;7.47;2.03;;;;;;;;;;5026803;28;20660;-72
2021/12/08 14:39:46;;;;;;;5.53;1.57;;;;;;;;;;5025718;28;20289;-75
2021/12/08 14:42:15;;;;;;;5.97;1.43;;;;;;;;;;5027743;28;20440;-74
2021/12/08 14:44:54;;;;;;;5.57;1.40;;;;;;;;;;5018423;28;20458;-74
2021/12/08 14:47:23;;;;;;;3.73;1.30;;;;;;;;;;5023924;28;20522;-75
2021/12/08 14:49:56;;;;;;;5.23;1.73;;;;;;;;;;5027371;28;20430;-71
2021/12/08 14:52:21;;;;;;;2.30;1.30;;;;;;;;;;5025429;28;20492;-73
2021/12/08 14:54:49;;;;;;;6.10;1.67;;;;;;;;;;5029162;28;20466;-75
2021/12/08 14:57:22;;;;;;;5.10;1.37;;;;;;;;;;5022551;28;20184;-73
2021/12/08 14:59:51;;;;;;;6.77;1.70;;;;;;;;;;5023575;28;21024;-72
2021/12/08 15:02:22;;;;;;;4.93;1.47;;;;;;;;;;5025870;28;20434;-77
2021/12/08 15:04:47;;;;;;;4.20;1.33;;;;;;;;;;5026173;28;20458;-73
2021/12/08 15:07:17;;;;;;;6.97;1.77;;;;;;;;;;5017153;28;22309;-73
2021/12/08 15:09:54;;;;;;;6.77;1.77;;;;;;;;;;5023748;28;20179;-72
2021/12/08 15:12:20;;;;;;;4.80;1.50;;;;;;;;;;5027254;28;20422;-75
2021/12/08 15:14:45;;;;;;;10.87;1.80;;;;;;;;;;5027740;28;20476;-72
2021/12/08 15:17:11;;;;;;;7.37;1.60;;;;;;;;;;5026642;28;20439;-72
2021/12/08 15:19:47;;;;;;;4.60;1.50;;;;;;;;;;5030059;28;20200;-72
2021/12/08 15:22:15;;;;;;;7.83;1.43;;;;;;;;;;5032054;28;20210;-71
2021/12/08 15:24:40;;;;;;;2.30;1.20;;;;;;;;;;5034839;28;20470;-72
2021/12/08 15:27:12;;;;;;;7.43;1.90;;;;;;;;;;5029912;28;20532;-75
2021/12/08 15:29:42;;;;;;;3.77;1.30;;;;;;;;;;5032829;28;20640;-74
2021/12/08 15:32:12;;;;;;;4.00;1.50;;;;;;;;;;5029196;28;20442;-72